FKKDFKYS

Guest
Details From FKKD - Douala
To FKYS - Yaounde Nsimalen
Flight Number -
Tags Generated
Created
Modified
Stats Distance 112 nm / 207 km
Max Altitude 0 ft / 0 m
Waypoints 2
Social Downloads 15
Likes 0
Share VATSIM

Download

Looking for another format? Having issues loading an existing format? Contact us
Advertisement - Login to hide

Notes

Generated

Route

FKKD FKYS

ID Type Via Altitude Latitude Longitude Leg Dist Tot Dist Heading (true) Name
O FKKD APT - 0 ft / 0 m 4.01234˚ 9.70845˚ - 0 nm - -
O FKYS APT - 0 ft / 0 m 3.70741˚ 11.55063˚ 111 nm 111 nm 99° / 99° -

Altitude Profile

Advertisement - Login to hide

FKKD

Details ICAO FKKD (DLA)
Name Douala
Region Cameroon
Timezone Africa/Douala (UTC+1.0)
Stats Elevation 33 ft / 10 m (AMSL)
Location 4.014208° 9.716538°
Runways 2
Magnetic Variation 1.054° W

METAR

FKKD 222100Z 00000KT 9999 SCT013 FEW016CB 26/25 Q1011 NOSIG

Decode

TAF

TAF FKKD 221700Z 2218/2324 VRB04KT 9999 SCT016 FEW020CB PROB40 2219/2306 TS BKN013 FEW016CB

Decode

Departure Runways

ID Width Length Bearing (true) Bearing (mag) Surface Threshold Offset Overrun Length
03 147 ft / 45 m 8,210 ft / 2,502 m 27.00° 28.05° Asphalt 350 ft / 107 m 0 ft / 0 m
12 148 ft / 45 m 9,363 ft / 2,854 m 116.94° 117.99° Asphalt 0 ft / 0 m 164 ft / 50 m
21 147 ft / 45 m 8,210 ft / 2,502 m 207.00° 208.05° Asphalt 350 ft / 107 m 0 ft / 0 m
30 148 ft / 45 m 9,363 ft / 2,854 m 296.94° 297.99° Asphalt 0 ft / 0 m 164 ft / 50 m

FKYS

Details ICAO FKYS (NSI)
Name YAOUNDE NSIMALEN
Region Cameroon
Timezone Africa/Douala (UTC+1.0)
Stats Elevation 2,278 ft / 694 m (AMSL)
Location 3.722554° 11.553270°
Runways 1
Magnetic Variation 0.638° W

METAR

FKYS 222100Z /////KT 9999 FEW006 23/22 Q1017 NOSIG

Decode

TAF

TAF FKYS 221700Z 2218/2318 VRB04KT 9999 TS SCT013 FEW020CB BECMG 2218/2220 NSW BECMG 2221/2223 FEW003 BKN006 PROB40 2302/2306 3000 BR BECMG 2307/2309 BKN016

Decode

Destination Runways

ID Width Length Bearing (true) Bearing (mag) Surface Threshold Offset Overrun Length
01 148 ft / 45 m 11,220 ft / 3,420 m 9.87° 10.51° Asphalt 0 ft / 0 m 200 ft / 61 m
19 148 ft / 45 m 11,220 ft / 3,420 m 189.87° 190.51° Asphalt 0 ft / 0 m 200 ft / 61 m

Popular Alternatives